createdAt,value
2023-03-23T15:59:44.150Z,95922.13
2023-03-23T16:02:22.274Z,95919.19
2023-03-23T16:04:51.394Z,95927.97
2023-03-23T16:07:24.564Z,95926.13
2023-03-23T16:09:52.868Z,95930.91
2023-03-23T16:12:21.385Z,95926.38
2023-03-23T16:14:49.786Z,95933.84
2023-03-23T16:17:21.791Z,95934.09
2023-03-23T16:19:50.261Z,95935.72
2023-03-23T16:22:18.734Z,95939.44
2023-03-23T16:24:47.300Z,95939.94
2023-03-23T16:27:16.111Z,95934.63
2023-03-23T16:30:02.238Z,95937.28
2023-03-23T16:35:03.331Z,95947.13
2023-03-23T16:37:34.696Z,95939.94
2023-03-23T16:40:03.753Z,95936.78
2023-03-23T16:42:32.238Z,95944.75
2023-03-23T16:45:01.114Z,95941.28
2023-03-23T16:47:29.481Z,95949.00
2023-03-23T16:49:59.717Z,95950.06
2023-03-23T16:52:28.232Z,95940.19
2023-03-23T16:54:57.698Z,95947.41
2023-03-23T16:57:27.103Z,95943.66
2023-03-23T16:59:55.468Z,95945.81
2023-03-23T17:02:24.084Z,95942.88
2023-03-23T17:04:52.953Z,95933.59
2023-03-23T17:07:23.012Z,95919.47
2023-03-23T17:09:51.279Z,95911.97
2023-03-23T17:12:19.577Z,95922.38
2023-03-23T17:14:48.094Z,95921.84
2023-03-23T17:17:18.037Z,95914.13
2023-03-23T17:19:46.980Z,95928.25
2023-03-23T17:22:15.447Z,95926.66
2023-03-23T17:24:47.655Z,95926.66
2023-03-23T17:27:16.867Z,95924.47
2023-03-23T17:29:45.104Z,95918.88
2023-03-23T17:32:17.840Z,95918.09
2023-03-23T17:34:46.468Z,95920.22
2023-03-23T17:37:14.566Z,95918.66
2023-03-23T17:39:46.270Z,95921.56
2023-03-23T17:42:16.149Z,95919.69
2023-03-23T17:44:44.311Z,95917.56
2023-03-23T17:47:12.690Z,95921.03
2023-03-23T17:49:41.081Z,95919.41
2023-03-23T17:52:34.933Z,95919.94
2023-03-23T17:55:04.800Z,95917.56
2023-03-23T17:57:36.312Z,95913.03
2023-03-23T18:00:29.943Z,95914.84
2023-03-23T18:02:59.207Z,95925.22
2023-03-23T18:05:28.169Z,95915.41
2023-03-23T18:07:56.288Z,95930.53
2023-03-23T18:10:25.758Z,95926.56
2023-03-23T18:12:53.937Z,95924.97
2023-03-23T18:15:22.016Z,95930.53
2023-03-23T18:17:56.876Z,95923.91
2023-03-23T18:20:25.011Z,95927.34
2023-03-23T18:22:53.154Z,95922.03
2023-03-23T18:25:21.311Z,95922.56
2023-03-23T18:27:50.871Z,95918.03
2023-03-23T18:30:19.073Z,95918.28
2023-03-23T18:32:47.921Z,95914.03
2023-03-23T18:35:16.052Z,95914.84
2023-03-23T18:37:44.371Z,95914.81
2023-03-23T18:40:14.351Z,95906.06
2023-03-23T18:42:44.903Z,95924.09
2023-03-23T18:45:14.781Z,95928.59
2023-03-23T18:47:43.538Z,95926.19
2023-03-23T18:50:12.790Z,95925.69
2023-03-23T18:52:41.278Z,95925.94
2023-03-23T18:55:10.194Z,95928.59
2023-03-23T18:57:40.235Z,95932.84
2023-03-23T19:00:10.010Z,95934.44
2023-03-23T19:02:39.953Z,95938.19
2023-03-23T19:05:09.685Z,95945.34
2023-03-23T19:07:38.700Z,95946.13
2023-03-23T19:10:07.758Z,95941.88
2023-03-23T19:12:36.178Z,95948.50
2023-03-23T19:15:04.828Z,95940.25
2023-03-23T19:17:32.970Z,95946.13
2023-03-23T19:20:02.837Z,95953.00
2023-03-23T19:22:31.071Z,95944.47
2023-03-23T19:24:59.144Z,95941.56
2023-03-23T19:27:27.889Z,95947.69
2023-03-23T19:29:56.767Z,95941.31
2023-03-23T19:32:24.845Z,95938.41
2023-03-23T19:34:54.360Z,95944.75
2023-03-23T19:37:24.161Z,95939.16
2023-03-23T19:39:52.604Z,95946.00
2023-03-23T19:42:21.260Z,95944.16
2023-03-23T19:44:49.443Z,95938.03
2023-03-23T19:47:17.825Z,95943.31
2023-03-23T19:49:46.056Z,95938.50
2023-03-23T19:52:16.194Z,95939.59
2023-03-23T19:54:47.605Z,95934.47
2023-03-23T19:57:16.169Z,95936.38
2023-03-23T19:59:44.558Z,95932.16
2023-03-23T20:02:17.132Z,95935.56
2023-03-23T20:04:46.031Z,95940.63
2023-03-23T20:07:14.317Z,95935.03
2023-03-23T20:09:42.685Z,95926.59
2023-03-23T20:12:13.026Z,95934.53
2023-03-23T20:14:44.247Z,95921.53
2023-03-23T20:17:14.506Z,95924.44
2023-03-23T20:19:43.029Z,95931.34
2023-03-23T20:22:11.321Z,95927.34
2023-03-23T20:24:40.114Z,95925.72
2023-03-23T20:27:08.409Z,95925.69
2023-03-23T20:29:37.953Z,95926.97
2023-03-23T20:32:07.485Z,95916.06
2023-03-23T20:34:36.506Z,95912.38
2023-03-23T20:37:05.468Z,95914.78
2023-03-23T20:39:34.679Z,95919.28
2023-03-23T20:42:06.433Z,95916.13
2023-03-23T20:44:36.076Z,95912.41
2023-03-23T20:47:06.642Z,95913.75
2023-03-23T20:49:37.862Z,95915.59
2023-03-23T20:52:08.184Z,95912.94
2023-03-23T20:54:37.888Z,95922.19
2023-03-23T20:57:06.889Z,95917.63
2023-03-23T20:59:35.532Z,95920.00
2023-03-23T21:02:06.224Z,95915.47
2023-03-23T21:04:34.364Z,95921.00
2023-03-23T21:07:02.792Z,95921.06
2023-03-23T21:09:31.122Z,95915.19
2023-03-23T21:12:00.123Z,95916.50
2023-03-23T21:14:28.599Z,95917.88
2023-03-23T21:16:56.917Z,95910.13
2023-03-23T21:19:30.119Z,95911.78
2023-03-23T21:21:58.935Z,95897.13
2023-03-23T21:24:30.999Z,95896.59
2023-03-23T21:27:03.009Z,95888.44
2023-03-23T21:29:32.749Z,95883.94
2023-03-23T21:32:08.441Z,95887.66
2023-03-23T21:34:39.051Z,95883.91
2023-03-23T21:37:07.305Z,95861.38
2023-03-23T21:39:35.906Z,95864.03
2023-03-23T21:42:06.781Z,95850.22
2023-03-23T21:44:35.778Z,95859.25
2023-03-23T21:47:04.301Z,95853.69
2023-03-23T21:49:32.749Z,95853.94
2023-03-23T21:52:02.537Z,95852.59
2023-03-23T21:54:31.919Z,95853.34
2023-03-23T21:57:01.463Z,95843.81
2023-03-23T21:59:29.717Z,95839.59
2023-03-23T22:01:58.976Z,95832.97
2023-03-23T22:04:27.873Z,95830.06
2023-03-23T22:06:56.823Z,95821.81
2023-03-23T22:09:26.362Z,95809.84
2023-03-23T22:11:54.597Z,95801.38
2023-03-23T22:14:23.076Z,95799.78
2023-03-23T22:16:51.504Z,95803.50
2023-03-23T22:19:19.804Z,95796.09
2023-03-23T22:21:48.529Z,95794.22
2023-03-23T22:24:17.601Z,95784.66
2023-03-23T22:26:47.583Z,95771.94
2023-03-23T22:29:17.101Z,95771.13
2023-03-23T22:31:45.989Z,95770.88
2023-03-23T22:34:14.566Z,95752.53
2023-03-23T22:36:42.701Z,95769.75
2023-03-23T22:39:11.180Z,95780.63
2023-03-23T22:41:42.201Z,95778.25
2023-03-23T22:44:15.757Z,95772.63
2023-03-23T22:46:44.049Z,95771.56
2023-03-23T22:49:12.425Z,95765.72
2023-03-23T22:51:41.001Z,95760.94
2023-03-23T22:54:09.365Z,95770.47
2023-03-23T22:56:38.341Z,95762.25
2023-03-23T22:59:06.733Z,95765.16
2023-03-23T23:01:36.626Z,95765.16
2023-03-23T23:04:06.609Z,95761.19
2023-03-23T23:06:35.622Z,95764.63
2023-03-23T23:09:04.791Z,95748.44
2023-03-23T23:11:32.900Z,95751.66
2023-03-23T23:14:01.146Z,95748.97
2023-03-23T23:16:29.316Z,95759.00
2023-03-23T23:18:58.827Z,95755.00
2023-03-23T23:21:29.148Z,95768.25
2023-03-23T23:23:57.953Z,95771.16
2023-03-23T23:26:26.533Z,95767.19
2023-03-23T23:28:54.616Z,95783.31
2023-03-23T23:31:27.021Z,95768.72
2023-03-23T23:33:59.238Z,95777.44
2023-03-23T23:36:30.174Z,95779.84
2023-03-23T23:39:00.189Z,95787.28
2023-03-23T23:41:29.940Z,95774.88
2023-03-23T23:43:58.218Z,95762.13
2023-03-23T23:46:26.879Z,95749.63
2023-03-23T23:48:55.880Z,95745.41
2023-03-23T23:51:27.229Z,95737.78
2023-03-23T23:53:59.250Z,95746.72
2023-03-23T23:56:32.088Z,95735.88
2023-03-23T23:59:00.345Z,95741.19
